createdAt,value
2023-03-26T00:01:21.442Z,93182.00
2023-03-26T00:03:54.074Z,93172.25
2023-03-26T00:06:23.170Z,93176.63
2023-03-26T00:08:50.808Z,93179.03
2023-03-26T00:11:19.745Z,93196.84
2023-03-26T00:13:47.758Z,93181.03
2023-03-26T00:16:18.242Z,93173.66
2023-03-26T00:18:46.123Z,93178.63
2023-03-26T00:21:14.201Z,93173.00
2023-03-26T00:23:41.678Z,93167.88
2023-03-26T00:26:10.731Z,93162.09
2023-03-26T00:28:40.433Z,93152.47
2023-03-26T00:31:10.343Z,93154.09
2023-03-26T00:33:40.838Z,93147.66
2023-03-26T00:36:11.081Z,93136.44
2023-03-26T00:38:39.158Z,93136.28
2023-03-26T00:41:07.581Z,93132.47
2023-03-26T00:43:35.971Z,93130.69
2023-03-26T00:46:03.450Z,93128.13
2023-03-26T00:48:43.922Z,93134.38
2023-03-26T00:51:18.103Z,93134.38
2023-03-26T00:53:47.094Z,93139.09
2023-03-26T00:56:14.590Z,93132.19
2023-03-26T00:58:41.977Z,93142.31
2023-03-26T01:01:11.085Z,93150.44
2023-03-26T01:03:38.707Z,93143.88
2023-03-26T01:06:11.349Z,93141.63
2023-03-26T01:08:42.125Z,93139.84
2023-03-26T01:11:14.354Z,93140.00
2023-03-26T01:13:44.905Z,93140.00
2023-03-26T01:16:22.120Z,93148.38
2023-03-26T01:18:50.011Z,93148.69
2023-03-26T01:21:22.770Z,93144.72
2023-03-26T01:23:57.877Z,93146.16
2023-03-26T01:26:44.482Z,93150.03
2023-03-26T01:29:20.801Z,93149.53
2023-03-26T01:31:55.030Z,93160.75
2023-03-26T01:34:30.568Z,93156.56
2023-03-26T01:37:04.750Z,93166.22
2023-03-26T01:39:39.002Z,93166.97
2023-03-26T01:42:08.407Z,93164.41
2023-03-26T01:44:39.862Z,93169.06
2023-03-26T01:47:08.191Z,93172.94
2023-03-26T01:49:35.211Z,93167.16
2023-03-26T01:52:02.387Z,93174.34
2023-03-26T01:54:34.121Z,93174.66
2023-03-26T01:57:06.085Z,93171.34
2023-03-26T01:59:43.552Z,93168.44
2023-03-26T02:02:14.022Z,93178.38
2023-03-26T02:04:48.470Z,93173.25
2023-03-26T02:07:21.232Z,93173.72
2023-03-26T02:09:52.729Z,93180.59
2023-03-26T02:12:21.832Z,93170.50
2023-03-26T02:14:49.378Z,93166.34
2023-03-26T02:17:19.190Z,93166.34
2023-03-26T02:19:48.118Z,93160.56
2023-03-26T02:22:15.857Z,93163.47
2023-03-26T02:24:45.090Z,93160.44
2023-03-26T02:27:13.795Z,93154.19
2023-03-26T02:29:40.644Z,93151.63
2023-03-26T02:32:13.551Z,93158.34
2023-03-26T02:34:41.002Z,93166.38
2023-03-26T02:37:08.814Z,93166.06
2023-03-26T02:39:36.692Z,93167.69
2023-03-26T02:42:12.990Z,93169.59
2023-03-26T02:44:46.667Z,93169.25
2023-03-26T02:47:19.718Z,93173.09
2023-03-26T02:49:52.722Z,93180.97
2023-03-26T02:52:26.125Z,93184.78
2023-03-26T02:54:56.322Z,93196.50
2023-03-26T02:57:26.580Z,93196.66
2023-03-26T03:00:10.112Z,93204.19
2023-03-26T03:02:40.062Z,93210.13
2023-03-26T03:05:26.579Z,93216.53
2023-03-26T03:08:13.995Z,93213.63
2023-03-26T03:10:57.736Z,93215.09
2023-03-26T03:13:38.372Z,93210.13
2023-03-26T03:16:07.045Z,93217.94
2023-03-26T03:18:34.525Z,93214.44
2023-03-26T03:21:03.040Z,93210.44
2023-03-26T03:23:30.399Z,93212.34
2023-03-26T03:26:12.990Z,93211.72
2023-03-26T03:28:42.021Z,93214.44
2023-03-26T03:31:09.251Z,93218.59
2023-03-26T03:33:37.167Z,93216.19
2023-03-26T03:36:10.528Z,93211.69
2023-03-26T03:38:48.585Z,93213.28
2023-03-26T03:41:19.398Z,93208.97
2023-03-26T03:43:48.716Z,93212.47
2023-03-26T03:46:20.951Z,93207.84
2023-03-26T03:48:49.999Z,93199.97
2023-03-26T03:51:21.970Z,93207.19
2023-03-26T03:53:52.884Z,93211.66
2023-03-26T03:56:32.461Z,93219.66
2023-03-26T03:59:24.090Z,93220.94
2023-03-26T04:01:51.263Z,93222.81
2023-03-26T04:04:28.800Z,93231.31
2023-03-26T04:07:00.889Z,93226.38
2023-03-26T04:09:35.906Z,93232.13
2023-03-26T04:12:10.540Z,93229.88
2023-03-26T04:14:42.612Z,93237.84
2023-03-26T04:17:15.746Z,93242.63
2023-03-26T04:19:44.857Z,93240.41
2023-03-26T04:22:14.059Z,93257.69
2023-03-26T04:24:55.428Z,93258.78
2023-03-26T04:27:37.682Z,93265.66
2023-03-26T04:30:20.726Z,93260.25
2023-03-26T04:33:10.690Z,93270.63
2023-03-26T04:35:41.831Z,93275.88
2023-03-26T04:38:11.568Z,93284.22
2023-03-26T04:40:42.404Z,93292.69
2023-03-26T04:43:42.284Z,93293.78
2023-03-26T04:46:21.991Z,93296.22
2023-03-26T04:48:55.153Z,93302.94
2023-03-26T04:51:27.216Z,93309.34
2023-03-26T04:53:58.398Z,93305.84
2023-03-26T04:56:39.664Z,93305.84
2023-03-26T04:59:08.128Z,93297.84
2023-03-26T05:01:41.857Z,93305.53
2023-03-26T05:04:11.675Z,93309.38
2023-03-26T05:06:39.913Z,93315.16
2023-03-26T05:09:15.766Z,93303.50
2023-03-26T05:12:18.133Z,93313.09
2023-03-26T05:15:00.048Z,93319.50
2023-03-26T05:17:58.142Z,93317.28
2023-03-26T05:20:31.293Z,93321.50
2023-03-26T05:22:58.556Z,93327.94
2023-03-26T05:25:31.109Z,93326.03
2023-03-26T05:28:00.238Z,93333.88
2023-03-26T05:30:34.170Z,93330.22
2023-03-26T05:33:04.465Z,93332.81
2023-03-26T05:35:40.746Z,93327.69
2023-03-26T05:38:09.339Z,93328.16
2023-03-26T05:40:36.691Z,93330.72
2023-03-26T05:43:05.485Z,93334.09
2023-03-26T05:45:35.730Z,93339.22
2023-03-26T05:48:16.955Z,93339.69
2023-03-26T05:50:43.923Z,93340.34
2023-03-26T05:53:10.975Z,93334.91
2023-03-26T05:56:04.349Z,93345.16
2023-03-26T05:58:52.108Z,93341.31
2023-03-26T06:01:38.624Z,93339.38
2023-03-26T06:04:25.601Z,93338.25
2023-03-26T06:07:19.875Z,93328.13
2023-03-26T06:10:03.552Z,93327.66
2023-03-26T06:12:30.599Z,93331.47
2023-03-26T06:14:57.746Z,93327.94
2023-03-26T06:17:38.800Z,93318.94
2023-03-26T06:20:15.902Z,93316.19
2023-03-26T06:22:46.118Z,93322.31
2023-03-26T06:25:34.020Z,93328.91
2023-03-26T06:28:08.025Z,93327.25
2023-03-26T06:31:13.417Z,93332.53
2023-03-26T06:33:49.180Z,93323.69
2023-03-26T06:36:18.021Z,93322.19
2023-03-26T06:38:48.533Z,93320.88
2023-03-26T06:41:15.592Z,93323.56
2023-03-26T06:44:01.378Z,93318.56
2023-03-26T06:47:00.450Z,93317.72
2023-03-26T06:49:46.219Z,93323.75
2023-03-26T06:52:36.915Z,93326.91
2023-03-26T06:55:24.802Z,93335.47
2023-03-26T06:58:14.585Z,93337.53
2023-03-26T07:00:44.124Z,93345.25
2023-03-26T07:03:29.730Z,93350.97
2023-03-26T07:06:15.048Z,93356.84
2023-03-26T07:09:02.261Z,93360.88
2023-03-26T07:11:29.445Z,93365.66
2023-03-26T07:14:15.615Z,93366.69
2023-03-26T07:16:42.560Z,93359.66
2023-03-26T07:19:29.876Z,93359.69
2023-03-26T07:21:57.397Z,93364.31
2023-03-26T07:24:50.394Z,93346.56
2023-03-26T07:27:48.790Z,93356.88
2023-03-26T07:30:28.881Z,93343.13
2023-03-26T07:33:19.543Z,93337.22
2023-03-26T07:36:08.249Z,93333.47
2023-03-26T07:39:00.493Z,93337.00
2023-03-26T07:41:45.506Z,93331.09
2023-03-26T07:44:47.540Z,93332.13
2023-03-26T07:47:34.349Z,93333.94
2023-03-26T07:50:18.801Z,93331.66
2023-03-26T07:52:58.674Z,93328.38
2023-03-26T07:55:51.125Z,93331.16
2023-03-26T07:59:11.991Z,93326.19
2023-03-26T08:02:08.846Z,93332.50
2023-03-26T08:04:55.015Z,93320.34
2023-03-26T08:07:51.677Z,93324.63
2023-03-26T08:10:28.305Z,93314.16
2023-03-26T08:13:14.088Z,93325.53
2023-03-26T08:15:48.281Z,93322.59
2023-03-26T08:18:27.727Z,93323.69
2023-03-26T08:20:58.303Z,93327.91
2023-03-26T08:23:29.182Z,93333.16
2023-03-26T08:26:02.496Z,93327.25
2023-03-26T08:28:38.637Z,93340.59
2023-03-26T08:31:08.321Z,93334.06
2023-03-26T08:33:38.302Z,93329.69
2023-03-26T08:36:06.072Z,93331.47
2023-03-26T08:38:33.113Z,93332.47
2023-03-26T08:41:36.234Z,93335.09
2023-03-26T08:44:40.782Z,93326.72
2023-03-26T08:47:38.553Z,93326.50
2023-03-26T08:50:28.752Z,93328.28
2023-03-26T08:53:23.372Z,93324.22
2023-03-26T08:55:54.102Z,93328.97
2023-03-26T08:58:56.056Z,93327.34
2023-03-26T09:02:07.556Z,93334.72
2023-03-26T09:05:02.195Z,93331.31
2023-03-26T09:08:11.413Z,93321.31
2023-03-26T09:10:53.553Z,93328.41
2023-03-26T09:13:44.190Z,93321.84
2023-03-26T09:16:43.594Z,93322.38
2023-03-26T09:19:39.149Z,93317.28
2023-03-26T09:22:29.762Z,93320.81
2023-03-26T09:25:14.478Z,93314.88
2023-03-26T09:28:06.883Z,93311.81
2023-03-26T09:30:47.101Z,93305.19
2023-03-26T09:33:54.024Z,93304.63
2023-03-26T09:36:30.409Z,93303.13
2023-03-26T09:39:06.552Z,93306.44
2023-03-26T09:41:39.712Z,93307.13
2023-03-26T09:44:34.268Z,93312.78
2023-03-26T09:47:30.431Z,93311.75
2023-03-26T09:50:09.018Z,93308.63
2023-03-26T09:52:55.348Z,93307.41
2023-03-26T09:55:42.147Z,93302.72
2023-03-26T09:58:27.326Z,93299.97
2023-03-26T10:01:05.544Z,93298.25
2023-03-26T10:03:41.007Z,93279.25
2023-03-26T10:06:33.626Z,93280.38
2023-03-26T10:09:15.125Z,93285.97
2023-03-26T10:12:07.079Z,93272.84
2023-03-26T10:14:37.543Z,93267.84
2023-03-26T10:17:19.720Z,93273.31
2023-03-26T10:19:57.035Z,93268.09
2023-03-26T10:22:36.008Z,93266.78
2023-03-26T10:25:33.288Z,93254.56
2023-03-26T10:28:10.358Z,93245.06
2023-03-26T10:30:53.692Z,93244.47
2023-03-26T10:33:31.513Z,93242.19
2023-03-26T10:36:15.629Z,93240.75
2023-03-26T10:38:54.754Z,93227.59
2023-03-26T10:41:28.158Z,93236.91
2023-03-26T10:44:09.070Z,93227.44
2023-03-26T10:47:03.425Z,93229.72
2023-03-26T10:49:52.251Z,93213.66
2023-03-26T10:52:22.189Z,93230.78
2023-03-26T10:54:54.525Z,93223.13
2023-03-26T10:57:38.196Z,93217.00
2023-03-26T11:00:14.986Z,93214.28
2023-03-26T11:02:47.092Z,93206.63
2023-03-26T11:05:28.900Z,93218.47
2023-03-26T11:08:00.331Z,93212.72
2023-03-26T11:10:37.112Z,93208.09
2023-03-26T11:13:14.685Z,93216.84
2023-03-26T11:15:45.341Z,93214.47
2023-03-26T11:18:17.769Z,93204.53
2023-03-26T11:20:47.727Z,93199.13
2023-03-26T11:23:31.635Z,93206.75
2023-03-26T11:26:08.792Z,93192.53
2023-03-26T11:29:04.142Z,93188.06
2023-03-26T11:31:47.815Z,93188.81
2023-03-26T11:34:17.405Z,93183.88
2023-03-26T11:36:47.645Z,93180.84
2023-03-26T11:39:20.340Z,93174.19
2023-03-26T11:41:47.811Z,93188.53
2023-03-26T11:44:26.145Z,93171.44
2023-03-26T11:47:01.459Z,93166.25
2023-03-26T11:49:47.078Z,93161.47
2023-03-26T11:52:15.904Z,93148.13
2023-03-26T11:54:43.453Z,93132.25
2023-03-26T11:57:13.666Z,93133.41
2023-03-26T11:59:55.766Z,93124.81
2023-03-26T12:02:29.329Z,93125.84
2023-03-26T12:05:12.262Z,93119.31
2023-03-26T12:07:45.874Z,93109.50
2023-03-26T12:10:26.658Z,93101.34
2023-03-26T12:12:56.086Z,93105.97
2023-03-26T12:15:23.263Z,93099.03
2023-03-26T12:17:55.992Z,93110.41
2023-03-26T12:20:32.951Z,93097.66
2023-03-26T12:23:00.822Z,93087.25
2023-03-26T12:25:33.444Z,93081.59
2023-03-26T12:28:03.081Z,93085.03
2023-03-26T12:30:31.308Z,93075.03
2023-03-26T12:33:03.957Z,93074.94
2023-03-26T12:35:33.584Z,93078.78
2023-03-26T12:38:24.353Z,93074.34
2023-03-26T12:41:05.297Z,93062.31
2023-03-26T12:44:49.558Z,93063.00
2023-03-26T12:47:54.392Z,93053.50
2023-03-26T12:49:18.774Z,93048.84
2023-03-26T12:51:49.090Z,93055.88
2023-03-26T12:54:33.322Z,93046.53
2023-03-26T12:57:19.850Z,93046.72
2023-03-26T13:00:21.291Z,93044.03
2023-03-26T13:03:06.947Z,93044.41
2023-03-26T13:05:45.312Z,93043.38
2023-03-26T13:08:41.653Z,93037.13
2023-03-26T13:11:11.642Z,93032.91
2023-03-26T13:13:52.745Z,93036.22
2023-03-26T13:16:25.230Z,93037.38
2023-03-26T13:18:54.591Z,93029.19
2023-03-26T13:21:30.394Z,93025.34
2023-03-26T13:24:03.026Z,93026.66
2023-03-26T13:26:41.150Z,93035.13
2023-03-26T13:29:17.570Z,93030.25
2023-03-26T13:31:49.505Z,93035.28
2023-03-26T13:34:22.661Z,93031.59
2023-03-26T13:36:59.886Z,93028.63
2023-03-26T13:39:33.315Z,93030.19
2023-03-26T13:42:10.350Z,93027.41
2023-03-26T13:44:45.367Z,93026.22
2023-03-26T13:47:16.908Z,93018.53
2023-03-26T13:49:46.916Z,93019.66
2023-03-26T13:52:20.717Z,93025.38
2023-03-26T13:54:50.267Z,93017.00
2023-03-26T13:57:21.570Z,93011.44
2023-03-26T13:59:51.199Z,93008.88
2023-03-26T14:02:24.318Z,93008.25
2023-03-26T14:04:55.789Z,93010.47
2023-03-26T14:07:27.651Z,93011.06
2023-03-26T14:09:57.268Z,93012.88
2023-03-26T14:12:33.172Z,93009.38
2023-03-26T14:15:02.818Z,92999.13
2023-03-26T14:17:34.732Z,92990.97
2023-03-26T14:20:41.720Z,92987.41
2023-03-26T14:23:24.784Z,92990.91
2023-03-26T14:26:02.826Z,92993.09
2023-03-26T14:28:54.901Z,92998.75
2023-03-26T14:31:24.233Z,92995.00
2023-03-26T14:34:02.392Z,92996.31
2023-03-26T14:36:48.004Z,92995.22
2023-03-26T14:39:43.426Z,92982.41
2023-03-26T14:42:19.196Z,92985.19
2023-03-26T14:45:11.060Z,92984.94
2023-03-26T14:47:43.387Z,92982.47
2023-03-26T14:50:37.610Z,92980.09
2023-03-26T14:53:13.913Z,92988.88
2023-03-26T14:56:04.259Z,92988.91
2023-03-26T14:59:07.394Z,92987.09
2023-03-26T15:02:15.783Z,92992.56
2023-03-26T15:04:52.035Z,92991.19
2023-03-26T15:07:30.359Z,92991.38
2023-03-26T15:10:17.913Z,92983.88
2023-03-26T15:13:01.137Z,92996.91
2023-03-26T15:16:01.013Z,92986.94
2023-03-26T15:19:08.785Z,92989.69
2023-03-26T15:22:12.683Z,92992.88
2023-03-26T15:25:12.009Z,92990.88
2023-03-26T15:28:11.617Z,92996.94
2023-03-26T15:31:09.892Z,92999.09
2023-03-26T15:34:20.168Z,92999.44
2023-03-26T15:37:22.417Z,93006.13
2023-03-26T15:40:17.126Z,93009.19
2023-03-26T15:42:49.304Z,93012.59
2023-03-26T15:45:22.538Z,93003.47
2023-03-26T15:47:57.450Z,93004.94
2023-03-26T15:50:55.905Z,93001.03
2023-03-26T15:53:36.549Z,93001.81
2023-03-26T15:56:11.650Z,93014.09
2023-03-26T15:58:46.600Z,93005.22
2023-03-26T16:01:21.231Z,93005.41
2023-03-26T16:03:56.534Z,93006.22
2023-03-26T16:06:31.142Z,92999.84
2023-03-26T16:09:08.630Z,93003.53
2023-03-26T16:11:49.534Z,93009.22
2023-03-26T16:14:18.663Z,93010.03
2023-03-26T16:16:59.299Z,93011.06
2023-03-26T16:19:36.283Z,93017.63
2023-03-26T16:22:06.156Z,93012.94
2023-03-26T16:24:34.747Z,93019.41
2023-03-26T16:27:10.710Z,93017.09
2023-03-26T16:30:10.933Z,93027.41
2023-03-26T16:32:41.219Z,93025.88
2023-03-26T16:35:35.919Z,93026.16
2023-03-26T16:38:09.745Z,93034.56
2023-03-26T16:40:57.542Z,93036.19
2023-03-26T16:43:51.724Z,93036.31
2023-03-26T16:46:35.332Z,93037.78
2023-03-26T16:49:10.693Z,93024.25
2023-03-26T16:51:53.604Z,93031.03
2023-03-26T16:54:25.477Z,93026.44
2023-03-26T16:56:59.563Z,93030.53
2023-03-26T16:59:40.023Z,93033.84
2023-03-26T17:02:16.388Z,93033.28
2023-03-26T17:04:46.647Z,93030.94
2023-03-26T17:07:17.376Z,93032.81
2023-03-26T17:09:54.170Z,93034.50
2023-03-26T17:12:29.085Z,93035.53
2023-03-26T17:15:17.440Z,93042.94
2023-03-26T17:17:53.171Z,93037.97
2023-03-26T17:20:33.497Z,93035.81
2023-03-26T17:23:11.562Z,93042.19
2023-03-26T17:25:45.160Z,93044.44
2023-03-26T17:28:32.423Z,93046.69
2023-03-26T17:31:05.057Z,93039.38
2023-03-26T17:33:34.782Z,93040.47
2023-03-26T17:36:30.858Z,93048.00
2023-03-26T17:39:19.585Z,93046.13
2023-03-26T17:42:13.403Z,93038.88
2023-03-26T17:44:44.060Z,93037.81
2023-03-26T17:47:18.739Z,93039.53
2023-03-26T17:49:47.865Z,93036.59
2023-03-26T17:52:18.447Z,93036.34
2023-03-26T17:54:48.103Z,93030.22
2023-03-26T17:57:19.087Z,93030.75
2023-03-26T17:59:47.032Z,93030.22
2023-03-26T18:02:16.236Z,93024.53
2023-03-26T18:04:45.707Z,93029.91
2023-03-26T18:07:33.297Z,93028.94
2023-03-26T18:10:17.283Z,93028.50
2023-03-26T18:13:23.379Z,93017.66
2023-03-26T18:15:57.854Z,93017.38
2023-03-26T18:18:29.550Z,93013.34
2023-03-26T18:21:00.357Z,93019.56
2023-03-26T18:23:36.045Z,93014.69
2023-03-26T18:26:12.561Z,93016.13
2023-03-26T18:28:42.300Z,93018.78
2023-03-26T18:31:14.175Z,93015.16
2023-03-26T18:33:42.982Z,93006.00
2023-03-26T18:36:11.554Z,93011.25
2023-03-26T18:38:40.561Z,93000.44
2023-03-26T18:41:17.220Z,92999.09
2023-03-26T18:43:44.842Z,93000.53
2023-03-26T18:46:12.750Z,92998.13
2023-03-26T18:48:40.211Z,92990.59
2023-03-26T18:51:07.502Z,92989.19
2023-03-26T18:53:37.882Z,92982.88
2023-03-26T18:56:20.594Z,92982.38
2023-03-26T18:58:51.022Z,92978.81
2023-03-26T19:01:25.370Z,92971.53
2023-03-26T19:03:53.880Z,92969.50
2023-03-26T19:06:21.033Z,92962.75
2023-03-26T19:08:48.283Z,92961.41
2023-03-26T19:11:17.116Z,92956.88
2023-03-26T19:13:50.702Z,92955.00
2023-03-26T19:16:22.261Z,92947.53
2023-03-26T19:18:49.717Z,92946.97
2023-03-26T19:21:18.128Z,92951.47
2023-03-26T19:23:46.857Z,92942.44
2023-03-26T19:26:14.247Z,92952.53
2023-03-26T19:28:49.083Z,92943.59
2023-03-26T19:31:24.040Z,92941.13
2023-03-26T19:33:54.580Z,92937.91
2023-03-26T19:36:24.350Z,92931.00
2023-03-26T19:38:52.697Z,92930.56
2023-03-26T19:41:22.790Z,92925.59
2023-03-26T19:43:50.738Z,92923.03
2023-03-26T19:46:18.354Z,92919.31
2023-03-26T19:48:51.902Z,92917.69
2023-03-26T19:51:21.038Z,92906.16
2023-03-26T19:53:50.379Z,92908.72
2023-03-26T19:56:19.582Z,92909.47
2023-03-26T19:58:46.703Z,92904.81
2023-03-26T20:01:17.656Z,92904.53
2023-03-26T20:03:48.613Z,92902.31
2023-03-26T20:06:17.718Z,92901.94
2023-03-26T20:08:44.866Z,92890.44
2023-03-26T20:11:15.624Z,92895.81
2023-03-26T20:13:42.781Z,92891.81
2023-03-26T20:16:14.138Z,92893.13
2023-03-26T20:18:41.541Z,92890.72
2023-03-26T20:21:12.846Z,92892.69
2023-03-26T20:23:40.244Z,92889.53
2023-03-26T20:26:12.159Z,92887.53
2023-03-26T20:28:47.558Z,92884.19
2023-03-26T20:31:17.582Z,92879.84
2023-03-26T20:33:44.661Z,92882.63
2023-03-26T20:36:13.844Z,92878.81
2023-03-26T20:39:00.891Z,92870.16
2023-03-26T20:41:27.946Z,92874.16
2023-03-26T20:43:54.910Z,92873.56
2023-03-26T20:46:23.606Z,92877.31
2023-03-26T20:48:58.944Z,92873.16
2023-03-26T20:51:28.810Z,92870.75
2023-03-26T20:53:56.426Z,92866.13
2023-03-26T20:56:23.638Z,92867.63
2023-03-26T20:59:03.476Z,92870.19
2023-03-26T21:01:35.173Z,92864.03
2023-03-26T21:04:04.389Z,92870.59
2023-03-26T21:06:32.838Z,92865.75
2023-03-26T21:09:00.408Z,92857.91
2023-03-26T21:11:36.682Z,92854.34
2023-03-26T21:14:08.033Z,92854.78
2023-03-26T21:16:35.782Z,92854.16
2023-03-26T21:19:03.418Z,92849.53
2023-03-26T21:21:46.498Z,92847.25
2023-03-26T21:24:19.339Z,92852.91
2023-03-26T21:26:50.559Z,92850.09
2023-03-26T21:29:18.043Z,92842.13
2023-03-26T21:31:46.770Z,92850.03
2023-03-26T21:34:14.203Z,92839.19
2023-03-26T21:36:43.158Z,92839.50
2023-03-26T21:39:11.127Z,92839.81
2023-03-26T21:41:43.931Z,92831.03
2023-03-26T21:44:11.108Z,92825.56
2023-03-26T21:46:41.693Z,92829.66
2023-03-26T21:49:09.171Z,92818.44
2023-03-26T21:51:36.572Z,92813.63
2023-03-26T21:54:06.126Z,92809.31
2023-03-26T21:56:41.370Z,92800.91
2023-03-26T21:59:12.212Z,92792.47
2023-03-26T22:01:42.192Z,92778.72
2023-03-26T22:04:13.238Z,92784.31
2023-03-26T22:06:44.383Z,92771.09
2023-03-26T22:09:15.145Z,92786.28
2023-03-26T22:11:43.900Z,92783.91
2023-03-26T22:14:13.373Z,92777.34
2023-03-26T22:16:41.397Z,92787.25
2023-03-26T22:19:08.762Z,92783.63
2023-03-26T22:21:36.895Z,92790.78
2023-03-26T22:24:04.258Z,92783.13
2023-03-26T22:26:32.978Z,92771.94
2023-03-26T22:28:59.977Z,92769.06
2023-03-26T22:31:27.200Z,92767.53
2023-03-26T22:33:55.047Z,92756.81
2023-03-26T22:36:23.744Z,92747.09
2023-03-26T22:38:53.233Z,92735.25
2023-03-26T22:41:20.668Z,92732.06
2023-03-26T22:43:52.127Z,92731.38
2023-03-26T22:46:19.525Z,92733.63
2023-03-26T22:48:48.546Z,92729.50
2023-03-26T22:51:15.550Z,92725.97
2023-03-26T22:53:43.537Z,92719.59
2023-03-26T22:56:11.314Z,92721.88
2023-03-26T22:58:38.341Z,92716.91
2023-03-26T23:01:09.789Z,92725.19
2023-03-26T23:03:37.234Z,92717.41
2023-03-26T23:06:06.921Z,92725.34
2023-03-26T23:08:34.460Z,92725.84
2023-03-26T23:11:02.107Z,92707.81
2023-03-26T23:13:29.028Z,92713.09
2023-03-26T23:15:57.265Z,92698.09
2023-03-26T23:18:25.916Z,92702.09
2023-03-26T23:20:58.152Z,92699.41
2023-03-26T23:23:29.408Z,92693.50
2023-03-26T23:25:58.711Z,92693.00
2023-03-26T23:28:26.031Z,92678.97
2023-03-26T23:30:54.755Z,92678.28
2023-03-26T23:33:23.514Z,92679.72
2023-03-26T23:35:53.325Z,92674.16
2023-03-26T23:38:22.312Z,92677.66
2023-03-26T23:40:57.465Z,92675.06
2023-03-26T23:43:25.553Z,92674.41
2023-03-26T23:45:53.233Z,92648.22
2023-03-26T23:48:25.412Z,92666.91
2023-03-26T23:51:02.841Z,92673.31
2023-03-26T23:53:32.021Z,92663.84
2023-03-26T23:55:59.221Z,92664.59
2023-03-26T23:58:30.113Z,92670.81
